createdAt,value
2018-12-21T00:00:52.791Z,60.16
2018-12-21T00:01:52.770Z,60.06
2018-12-21T00:02:52.812Z,58.84
2018-12-21T00:03:52.739Z,58.26
2018-12-21T00:04:52.833Z,58.17
2018-12-21T00:05:52.702Z,58.07
2018-12-21T00:06:52.689Z,57.98
2018-12-21T00:07:52.670Z,57.51
2018-12-21T00:08:52.655Z,58.07
2018-12-21T00:09:52.641Z,58.07
2018-12-21T00:10:52.621Z,57.98
2018-12-21T00:11:52.607Z,57.98
2018-12-21T00:12:52.592Z,57.51
2018-12-21T00:13:52.575Z,57.23
2018-12-21T00:15:52.535Z,56.46
2018-12-21T00:16:52.273Z,55.8
2018-12-21T00:17:52.501Z,55.52
2018-12-21T00:18:52.494Z,54.86
2018-12-21T00:19:52.471Z,54.19
2018-12-21T00:20:52.456Z,54.1
2018-12-21T00:21:52.438Z,54.19
2018-12-21T00:22:52.421Z,54.19
2018-12-21T00:23:52.408Z,54.38
2018-12-21T00:24:52.394Z,54.57
2018-12-21T00:25:52.375Z,54.57
2018-12-21T00:26:52.399Z,54.38
2018-12-21T00:27:52.341Z,54.67
2018-12-21T00:28:52.329Z,54.28
2018-12-21T00:29:52.061Z,54.95
2018-12-21T00:30:52.291Z,55.99
2018-12-21T00:31:52.281Z,56.75
2018-12-21T00:32:52.264Z,57.23
2018-12-21T00:33:52.246Z,57.13
2018-12-21T00:34:52.225Z,58.07
2018-12-21T00:35:51.967Z,58.84
2018-12-21T00:36:52.200Z,58.74
2018-12-21T00:37:52.181Z,58.55
2018-12-21T00:38:52.165Z,58.74
2018-12-21T00:39:51.897Z,57.98
2018-12-21T00:40:52.137Z,58.26
2018-12-21T00:41:52.115Z,57.6
2018-12-21T00:42:52.094Z,57.13
2018-12-21T00:43:52.082Z,57.23
2018-12-21T00:44:51.814Z,56.56
2018-12-21T00:45:52.044Z,56.94
2018-12-21T00:46:52.034Z,57.13
2018-12-21T00:47:52.013Z,56.85
2018-12-21T00:48:51.999Z,57.23
2018-12-21T00:49:51.981Z,56.85
2018-12-21T00:50:51.964Z,56.56
2018-12-21T00:51:51.951Z,57.32
2018-12-21T00:52:51.940Z,57.04
2018-12-21T00:53:51.917Z,57.32
2018-12-21T00:54:51.904Z,57.13
2018-12-21T00:55:51.882Z,56.66
2018-12-21T00:56:51.620Z,56.66
2018-12-21T00:57:51.855Z,56.94
2018-12-21T00:58:51.838Z,57.32
2018-12-21T00:59:51.820Z,57.04
2018-12-21T01:00:51.556Z,57.42
2018-12-21T01:01:51.788Z,57.6
2018-12-21T01:02:51.768Z,57.51
2018-12-21T01:03:51.756Z,57.42
2018-12-21T01:04:51.740Z,57.51
2018-12-21T01:05:51.734Z,57.42
2018-12-21T01:06:51.461Z,57.13
2018-12-21T01:07:51.692Z,56.66
2018-12-21T01:08:51.673Z,56.37
2018-12-21T01:09:51.654Z,56.46
2018-12-21T01:10:51.641Z,56.46
2018-12-21T01:11:51.629Z,56.27
2018-12-21T01:12:51.610Z,55.52
2018-12-21T01:13:51.592Z,54.67
2018-12-21T01:14:51.575Z,54.19
2018-12-21T01:15:51.559Z,54.1
2018-12-21T01:16:51.296Z,53.91
2018-12-21T01:17:51.525Z,54.19
2018-12-21T01:18:51.515Z,53.63
2018-12-21T01:19:51.497Z,53.53
2018-12-21T01:20:51.478Z,53.34
2018-12-21T01:21:51.459Z,53.72
2018-12-21T01:22:51.440Z,53.34
2018-12-21T01:23:51.423Z,53.06
2018-12-21T01:24:51.420Z,53.15
2018-12-21T01:25:51.151Z,52.48
2018-12-21T01:26:51.390Z,53.06
2018-12-21T01:27:51.366Z,53.15
2018-12-21T01:28:51.346Z,53.25
2018-12-21T01:29:51.082Z,53.34
2018-12-21T01:30:51.317Z,52.87
2018-12-21T01:31:51.293Z,53.15
2018-12-21T01:32:51.276Z,53.25
2018-12-21T01:33:51.263Z,53.15
2018-12-21T01:34:51.244Z,53.34
2018-12-21T01:35:51.234Z,54.1
2018-12-21T01:36:51.310Z,54
2018-12-21T01:37:51.194Z,53.91
2018-12-21T01:38:51.184Z,54.47
2018-12-21T01:39:51.171Z,55.24
2018-12-21T01:40:51.149Z,54.95
2018-12-21T01:41:51.157Z,54.86
2018-12-21T01:42:51.116Z,55.05
2018-12-21T01:43:51.100Z,55.71
2018-12-21T01:44:51.093Z,55.71
2018-12-21T01:45:51.062Z,56.09
2018-12-21T01:46:50.804Z,55.8
2018-12-21T01:47:51.031Z,55.71
2018-12-21T01:48:51.019Z,54.95
2018-12-21T01:49:51.002Z,54.95
2018-12-21T01:50:50.984Z,54.95
2018-12-21T01:51:50.970Z,54.57
2018-12-21T01:52:50.958Z,54.1
2018-12-21T01:53:50.936Z,54
2018-12-21T01:54:50.670Z,54.1
2018-12-21T01:55:50.901Z,53.34
2018-12-21T01:56:50.886Z,52.68
2018-12-21T01:57:50.874Z,52.96
2018-12-21T01:58:50.854Z,53.15
2018-12-21T01:59:50.844Z,53.63
2018-12-21T02:00:50.823Z,54.19
2018-12-21T02:01:50.900Z,54.1
2018-12-21T02:02:50.788Z,54.95
2018-12-21T02:03:50.770Z,55.05
2018-12-21T02:04:50.757Z,55.71
2018-12-21T02:05:50.742Z,55.8
2018-12-21T02:06:50.480Z,55.62
2018-12-21T02:07:50.709Z,55.8
2018-12-21T02:08:50.446Z,55.33
2018-12-21T02:09:50.674Z,55.99
2018-12-21T02:10:50.661Z,56.66
2018-12-21T02:11:50.648Z,57.23
2018-12-21T02:12:50.633Z,58.17
2018-12-21T02:13:50.611Z,58.45
2018-12-21T02:14:50.593Z,58.74
2018-12-21T02:15:50.580Z,59.88
2018-12-21T02:16:50.558Z,60.83
2018-12-21T02:17:50.541Z,61.49
2018-12-21T02:18:50.525Z,62.43
2018-12-21T02:19:50.513Z,63.29
2018-12-21T02:20:50.497Z,64.23
2018-12-21T02:21:58.203Z,63.85
2018-12-21T02:22:50.471Z,63.95
2018-12-21T02:23:50.451Z,65.37
2018-12-21T02:24:50.429Z,65.66
2018-12-21T02:25:50.417Z,65.66
2018-12-21T02:26:50.402Z,65.66
2018-12-21T02:27:50.385Z,66.32
2018-12-21T02:28:50.367Z,66.89
2018-12-21T02:29:50.347Z,67.08
2018-12-21T02:30:50.330Z,66.7
2018-12-21T02:31:50.073Z,66.41
2018-12-21T02:32:50.052Z,66.6
2018-12-21T02:33:50.041Z,66.03
2018-12-21T02:34:50.371Z,65.84
2018-12-21T02:35:50.253Z,66.51
2018-12-21T02:36:50.241Z,66.51
2018-12-21T02:37:50.231Z,66.51
2018-12-21T02:38:50.203Z,66.7
2018-12-21T02:39:50.187Z,66.41
2018-12-21T02:40:49.922Z,65.84
2018-12-21T02:41:50.152Z,65.66
2018-12-21T02:42:50.139Z,65.47
2018-12-21T02:43:50.124Z,64.71
2018-12-21T02:44:49.864Z,64.81
2018-12-21T02:45:50.089Z,64.42
2018-12-21T02:46:50.079Z,63.85
2018-12-21T02:47:50.062Z,63.2
2018-12-21T02:48:50.043Z,63.48
2018-12-21T02:49:50.027Z,62.43
2018-12-21T02:50:50.008Z,62.43
2018-12-21T02:51:49.752Z,61.68
2018-12-21T02:52:49.995Z,61.4
2018-12-21T02:53:49.961Z,60.64
2018-12-21T02:54:49.944Z,60.64
2018-12-21T02:55:49.928Z,60.35
2018-12-21T02:56:49.912Z,61.21
2018-12-21T02:57:49.894Z,62.05
2018-12-21T02:58:49.885Z,62.15
2018-12-21T02:59:49.862Z,61.87
2018-12-21T03:00:49.851Z,61.77
2018-12-21T03:01:49.836Z,61.4
2018-12-21T03:02:49.817Z,61.4
2018-12-21T03:03:49.798Z,62.34
2018-12-21T03:04:49.786Z,62.91
2018-12-21T03:05:49.764Z,62.72
2018-12-21T03:06:49.754Z,62.34
2018-12-21T03:07:49.730Z,64.04
2018-12-21T03:08:49.718Z,63.76
2018-12-21T03:09:49.704Z,63.39
2018-12-21T03:10:49.688Z,64.33
2018-12-21T03:11:49.670Z,64.04
2018-12-21T03:12:49.654Z,64.61
2018-12-21T03:13:49.650Z,64.81
2018-12-21T03:14:49.379Z,65.37
2018-12-21T03:15:49.606Z,65.66
2018-12-21T03:16:49.587Z,65.75
2018-12-21T03:17:49.583Z,66.03
2018-12-21T03:18:51.524Z,65.75
2018-12-21T03:19:49.545Z,65.66
2018-12-21T03:20:49.275Z,65.75
2018-12-21T03:21:49.506Z,67.18
2018-12-21T03:22:49.491Z,68.21
2018-12-21T03:23:49.476Z,68.31
2018-12-21T03:24:49.465Z,68.5
2018-12-21T03:25:49.444Z,68.88
2018-12-21T03:26:49.425Z,68.79
2018-12-21T03:27:49.409Z,68.69
2018-12-21T03:28:49.393Z,68.69
2018-12-21T03:29:49.375Z,68.21
2018-12-21T03:30:49.126Z,69.64
2018-12-21T03:31:49.371Z,69.45
2018-12-21T03:32:49.339Z,69.92
2018-12-21T03:33:49.323Z,70.2
2018-12-21T03:34:49.304Z,69.92
2018-12-21T03:35:49.316Z,70.87
2018-12-21T03:36:49.270Z,71.62
2018-12-21T03:37:49.249Z,71.53
2018-12-21T03:38:49.232Z,71.72
2018-12-21T03:39:48.967Z,71.34
2018-12-21T03:40:49.204Z,71.44
2018-12-21T03:41:49.191Z,70.58
2018-12-21T03:42:49.166Z,70.78
2018-12-21T03:43:49.157Z,71.44
2018-12-21T03:44:49.134Z,71.81
2018-12-21T03:45:49.122Z,72
2018-12-21T03:46:49.158Z,72.77
2018-12-21T03:47:49.089Z,74.09
2018-12-21T03:48:49.073Z,73.99
2018-12-21T03:49:49.055Z,73.8
2018-12-21T03:50:49.037Z,75.42
2018-12-21T03:51:49.155Z,76.08
2018-12-21T03:52:49.009Z,75.98
2018-12-21T03:53:48.750Z,76.27
2018-12-21T03:54:48.974Z,76.55
2018-12-21T03:55:48.961Z,76.74
2018-12-21T03:56:48.942Z,76.74
2018-12-21T03:57:48.924Z,77.12
2018-12-21T03:58:48.924Z,77.31
2018-12-21T03:59:48.900Z,77.5
2018-12-21T04:00:48.883Z,77.59
2018-12-21T04:01:48.862Z,78.16
2018-12-21T04:02:48.851Z,78.54
2018-12-21T04:03:48.832Z,77.97
2018-12-21T04:04:48.814Z,78.45
2018-12-21T04:05:48.799Z,78.54
2018-12-21T04:06:48.782Z,78.35
2018-12-21T04:07:48.764Z,78.45
2018-12-21T04:08:48.751Z,78.35
2018-12-21T04:09:48.814Z,79.49
2018-12-21T04:10:48.722Z,79.39
2018-12-21T04:11:48.704Z,78.83
2018-12-21T04:12:48.440Z,79.21
2018-12-21T04:13:48.683Z,80.06
2018-12-21T04:14:48.654Z,79.49
2018-12-21T04:15:48.638Z,79.77
2018-12-21T04:16:48.625Z,79.77
2018-12-21T04:17:48.603Z,79.96
2018-12-21T04:18:48.588Z,80.06
2018-12-21T04:19:48.575Z,79.77
2018-12-21T04:20:48.555Z,80.34
2018-12-21T04:21:48.544Z,80.15
2018-12-21T04:22:48.528Z,80.25
2018-12-21T04:23:48.522Z,79.96
2018-12-21T04:24:48.496Z,79.3
2018-12-21T04:25:48.475Z,79.11
2018-12-21T04:26:48.461Z,79.3
2018-12-21T04:27:48.448Z,78.83
2018-12-21T04:28:48.432Z,78.54
2018-12-21T04:29:48.414Z,78.54
2018-12-21T04:30:48.402Z,77.88
2018-12-21T04:31:48.386Z,78.16
2018-12-21T04:32:48.368Z,78.07
2018-12-21T04:33:48.352Z,78.73
2018-12-21T04:34:48.342Z,78.64
2018-12-21T04:35:48.315Z,79.49
2018-12-21T04:36:48.310Z,80.34
2018-12-21T04:37:48.290Z,81.01
2018-12-21T04:38:48.273Z,81.1
2018-12-21T04:39:48.254Z,80.82
2018-12-21T04:40:48.235Z,82.14
2018-12-21T04:41:48.230Z,81.95
2018-12-21T04:42:48.228Z,81.29
2018-12-21T04:43:48.187Z,80.72
2018-12-21T04:44:48.178Z,79.96
2018-12-21T04:45:48.160Z,79.68
2018-12-21T04:46:48.141Z,79.3
2018-12-21T04:47:48.129Z,79.87
2018-12-21T04:48:48.109Z,79.96
2018-12-21T04:49:48.094Z,79.77
2018-12-21T04:50:48.077Z,80.06
2018-12-21T04:51:48.062Z,80.72
2018-12-21T04:52:48.055Z,80.91
2018-12-21T04:53:48.029Z,81.86
2018-12-21T04:54:48.027Z,81.2
2018-12-21T04:55:47.998Z,82.52
2018-12-21T04:56:47.977Z,83.56
2018-12-21T04:57:47.963Z,83.85
2018-12-21T04:58:47.944Z,83.09
2018-12-21T04:59:47.931Z,83.37
2018-12-21T05:00:47.669Z,82.81
2018-12-21T05:01:47.900Z,83
2018-12-21T05:02:47.883Z,84.23
2018-12-21T05:03:47.877Z,84.89
2018-12-21T05:04:47.850Z,84.89
2018-12-21T05:05:47.834Z,84.99
2018-12-21T05:06:47.814Z,84.8
2018-12-21T05:07:47.810Z,84.89
2018-12-21T05:08:47.782Z,85.27
2018-12-21T05:09:47.768Z,84.42
2018-12-21T05:10:47.753Z,83.85
2018-12-21T05:11:47.839Z,83.56
2018-12-21T05:12:47.719Z,83.47
2018-12-21T05:13:47.702Z,83.47
2018-12-21T05:14:47.687Z,82.14
2018-12-21T05:15:47.673Z,81.29
2018-12-21T05:16:47.408Z,81.2
2018-12-21T05:17:47.639Z,81.48
2018-12-21T05:18:47.625Z,81.29
2018-12-21T05:19:47.609Z,81.67
2018-12-21T05:20:47.592Z,82.14
2018-12-21T05:21:47.578Z,83.18
2018-12-21T05:22:54.777Z,85.55
2018-12-21T05:23:47.540Z,85.93
2018-12-21T05:24:47.527Z,86.22
2018-12-21T05:25:47.513Z,85.55
2018-12-21T05:26:47.496Z,85.93
2018-12-21T05:27:47.480Z,86.6
2018-12-21T05:28:47.467Z,86.22
2018-12-21T05:29:47.557Z,86.41
2018-12-21T05:30:47.437Z,86.22
2018-12-21T05:31:47.414Z,87.54
2018-12-21T05:32:47.402Z,87.02
2018-12-21T05:33:47.385Z,87.02
2018-12-21T05:34:47.373Z,86.79
2018-12-21T05:35:47.352Z,86.12
2018-12-21T05:36:47.339Z,85.65
2018-12-21T05:37:47.318Z,85.17
2018-12-21T05:38:47.305Z,84.51
2018-12-21T05:39:47.310Z,83.98
2018-12-21T05:40:47.271Z,83.94
2018-12-21T05:41:47.006Z,84.42
2018-12-21T05:42:47.238Z,84.7
2018-12-21T05:43:47.221Z,84.99
2018-12-21T05:44:47.211Z,84.32
2018-12-21T05:45:47.196Z,84.23
2018-12-21T05:46:46.930Z,84.42
2018-12-21T05:47:47.160Z,83.85
2018-12-21T05:48:47.144Z,83.75
2018-12-21T05:49:47.124Z,83.85
2018-12-21T05:50:47.173Z,84.23
2018-12-21T05:51:47.098Z,84.8
2018-12-21T05:52:47.079Z,84.89
2018-12-21T05:53:47.061Z,84.89
2018-12-21T05:54:47.048Z,84.7
2018-12-21T05:55:47.030Z,84.8
2018-12-21T05:56:47.014Z,84.89
2018-12-21T05:57:47.001Z,84.23
2018-12-21T05:58:46.987Z,84.32
2018-12-21T05:59:46.965Z,83.85
2018-12-21T06:00:46.950Z,82.62
2018-12-21T06:01:46.933Z,81.67
2018-12-21T06:02:46.918Z,81.29
2018-12-21T06:03:46.906Z,81.01
2018-12-21T06:04:46.888Z,79.68
2018-12-21T06:05:46.872Z,79.21
2018-12-21T06:06:46.857Z,78.45
2018-12-21T06:07:46.593Z,77.97
2018-12-21T06:08:46.826Z,77.69
2018-12-21T06:09:46.810Z,77.5
2018-12-21T06:10:46.790Z,76.46
2018-12-21T06:11:46.772Z,75.89
2018-12-21T06:12:46.759Z,75.42
2018-12-21T06:13:46.743Z,75.32
2018-12-21T06:14:46.730Z,75.42
2018-12-21T06:15:46.712Z,74.37
2018-12-21T06:16:46.446Z,73.99
2018-12-21T06:17:46.680Z,73.9
2018-12-21T06:18:46.663Z,73.61
2018-12-21T06:19:46.651Z,73.05
2018-12-21T06:20:46.628Z,72
2018-12-21T06:21:46.612Z,71.81
2018-12-21T06:22:46.353Z,71.06
2018-12-21T06:23:46.588Z,69.92
2018-12-21T06:24:46.570Z,70.2
2018-12-21T06:25:46.552Z,70.68
2018-12-21T06:26:46.534Z,71.25
2018-12-21T06:27:46.520Z,71.34
2018-12-21T06:28:46.509Z,70.97
2018-12-21T06:29:46.485Z,70.39
2018-12-21T06:30:46.472Z,70.49
2018-12-21T06:31:46.455Z,70.3
2018-12-21T06:32:46.478Z,70.3
2018-12-21T06:33:46.424Z,70.78
2018-12-21T06:34:46.161Z,71.06
2018-12-21T06:35:46.394Z,71.72
2018-12-21T06:36:46.374Z,73.05
2018-12-21T06:37:48.524Z,73.71
2018-12-21T06:38:46.344Z,74.66
2018-12-21T06:39:46.328Z,76.46
2018-12-21T06:40:46.420Z,76.27
2018-12-21T06:41:46.303Z,75.79
2018-12-21T06:42:46.280Z,76.46
2018-12-21T06:43:46.262Z,76.36
2018-12-21T06:44:46.244Z,77.12
2018-12-21T06:45:46.231Z,77.03
2018-12-21T06:46:46.218Z,77.31
2018-12-21T06:47:46.208Z,76.65
2018-12-21T06:48:46.186Z,76.46
2018-12-21T06:49:46.167Z,75.7
2018-12-21T06:50:46.153Z,75.42
2018-12-21T06:51:46.132Z,75.98
2018-12-21T06:52:46.123Z,76.93
2018-12-21T06:53:46.103Z,78.45
2018-12-21T06:54:46.086Z,81.95
2018-12-21T06:55:46.068Z,82.62
2018-12-21T06:56:46.057Z,83.18
2018-12-21T06:57:46.038Z,83.18
2018-12-21T06:58:46.023Z,83.13
2018-12-21T06:59:46.003Z,83.18
2018-12-21T07:00:45.992Z,84.46
2018-12-21T07:01:45.975Z,85.36
2018-12-21T07:02:45.957Z,85.97
2018-12-21T07:03:45.943Z,86.12
2018-12-21T07:04:45.925Z,85.93
2018-12-21T07:05:45.909Z,86.12
2018-12-21T07:06:45.892Z,86.07
2018-12-21T07:07:45.879Z,86.16
2018-12-21T07:08:45.955Z,85.69
2018-12-21T07:09:45.845Z,89.39
2018-12-21T07:10:45.834Z,89.58
2018-12-21T07:11:45.818Z,89.67
2018-12-21T07:12:46.935Z,90.34
2018-12-21T07:13:45.780Z,91.28
2018-12-21T07:14:45.767Z,92.14
2018-12-21T07:15:45.751Z,92.8
2018-12-21T07:16:45.733Z,93.08
2018-12-21T07:17:45.472Z,93.37
2018-12-21T07:18:45.703Z,94.04
2018-12-21T07:19:45.696Z,95.55
2018-12-21T07:20:45.669Z,95.55
2018-12-21T07:21:45.665Z,95.65
2018-12-21T07:22:45.640Z,94.79
2018-12-21T07:23:45.625Z,95.55
2018-12-21T07:24:45.366Z,95.93
2018-12-21T07:25:45.594Z,95.07
2018-12-21T07:26:45.579Z,94.13
2018-12-21T07:27:45.315Z,93.56
2018-12-21T07:28:45.547Z,94.98
2018-12-21T07:29:45.285Z,94.79
2018-12-21T07:30:45.511Z,94.04
2018-12-21T07:31:45.532Z,94.04
2018-12-21T07:32:45.485Z,97.35
2018-12-21T08:08:24.728Z,95.65
2018-12-21T08:09:10.055Z,94.51
2018-12-21T08:10:10.039Z,93.84
2018-12-21T08:11:10.026Z,90.24
2018-12-21T08:12:10.007Z,90.15
2018-12-21T08:13:09.995Z,88.54
2018-12-21T08:14:09.980Z,87.02
2018-12-21T08:15:09.964Z,85.41
2018-12-21T08:16:09.699Z,84.55
2018-12-21T08:17:09.931Z,83.42
2018-12-21T08:18:09.978Z,82.66
2018-12-21T08:19:09.910Z,82.18
2018-12-21T08:20:09.885Z,81.52
2018-12-21T08:21:09.867Z,80.1
2018-12-21T08:22:09.853Z,79.06
2018-12-21T08:23:09.838Z,78.58
2018-12-21T08:24:09.821Z,78.77
2018-12-21T08:25:09.806Z,78.67
2018-12-21T08:26:09.789Z,78.96
2018-12-21T08:27:09.524Z,77.92
2018-12-21T08:28:09.756Z,77.73
2018-12-21T08:29:09.742Z,77.73
2018-12-21T08:30:09.722Z,77.25
2018-12-21T08:31:11.199Z,77.45
2018-12-21T08:32:09.693Z,77.16
2018-12-21T08:33:09.679Z,75.93
2018-12-21T08:34:09.662Z,76.03
2018-12-21T08:35:09.643Z,75.55
2018-12-21T08:36:09.627Z,75.64
2018-12-21T08:37:09.365Z,74.51
2018-12-21T08:38:09.596Z,75.07
2018-12-21T08:39:09.579Z,74.79
2018-12-21T08:40:09.566Z,74.6
2018-12-21T08:41:09.552Z,74.13
2018-12-21T08:42:09.641Z,73.56
2018-12-21T08:43:09.546Z,72.99
2018-12-21T08:44:09.504Z,72.52
2018-12-21T08:45:09.491Z,72.61
2018-12-21T08:46:09.482Z,72.33
2018-12-21T08:47:09.454Z,72
2018-12-21T08:48:09.439Z,71.38
2018-12-21T08:49:09.431Z,70.72
2018-12-21T08:50:09.407Z,70.34
2018-12-21T08:51:09.399Z,69.29
2018-12-21T08:52:09.379Z,69.48
2018-12-21T08:53:09.361Z,69.38
2018-12-21T08:54:09.348Z,69.2
2018-12-21T08:55:09.336Z,69.01
2018-12-21T08:56:09.325Z,68.25
2018-12-21T08:57:09.303Z,67.49
2018-12-21T08:58:09.286Z,67.02
2018-12-21T08:59:09.267Z,67.4
2018-12-21T09:00:09.254Z,68.15
2018-12-21T09:01:09.238Z,68.44
2018-12-21T09:02:09.222Z,68.59
2018-12-21T09:03:08.958Z,69.48
2018-12-21T09:04:09.187Z,70.9
2018-12-21T09:05:09.171Z,71.28
2018-12-21T09:06:09.158Z,71.47
2018-12-21T09:07:09.141Z,71.47
2018-12-21T09:08:09.131Z,71.57
2018-12-21T09:09:09.114Z,72.23
2018-12-21T09:10:09.097Z,72.89
2018-12-21T09:11:09.083Z,73.84
2018-12-21T09:12:09.061Z,73.94
2018-12-21T09:13:09.048Z,75.36
2018-12-21T09:14:09.664Z,76.87
2018-12-21T09:15:09.017Z,77.73
2018-12-21T09:16:09.002Z,77.25
2018-12-21T09:17:08.984Z,79.25
2018-12-21T09:18:08.971Z,81.9
2018-12-21T09:19:08.957Z,83.32
2018-12-21T09:20:08.944Z,83.04
2018-12-21T09:21:08.927Z,83.23
2018-12-21T09:22:08.911Z,83.89
2018-12-21T09:23:08.897Z,84.17
2018-12-21T09:24:08.884Z,83.7
2018-12-21T09:25:08.865Z,83.51
2018-12-21T09:26:08.848Z,85.03
2018-12-21T09:27:08.870Z,85.03
2018-12-21T09:28:08.820Z,84.65
2018-12-21T09:29:08.811Z,85.5
2018-12-21T09:30:08.795Z,85.69
2018-12-21T09:31:08.854Z,85.6
2018-12-21T09:32:08.762Z,86.16
2018-12-21T09:33:08.741Z,89.39
2018-12-21T09:34:08.727Z,90.81
2018-12-21T09:35:08.716Z,92.71
2018-12-21T09:36:08.694Z,91.38
2018-12-21T09:37:08.432Z,90.72
2018-12-21T09:38:08.413Z,88.35
2018-12-21T09:39:08.645Z,88.35
2018-12-21T09:40:08.721Z,86.93
2018-12-21T09:41:08.618Z,86.26
2018-12-21T09:42:08.606Z,85.5
2018-12-21T09:43:08.692Z,85.69
2018-12-21T09:44:08.569Z,85.13
2018-12-21T09:45:08.555Z,86.55
2018-12-21T09:46:08.539Z,86.26
2018-12-21T09:47:08.525Z,85.5
2018-12-21T09:48:08.514Z,86.35
2018-12-21T09:49:08.501Z,85.5
2018-12-21T09:50:08.477Z,86.26
2018-12-21T09:51:08.464Z,84.84
2018-12-21T09:52:08.449Z,83.98
2018-12-21T09:53:08.439Z,83.8
2018-12-21T09:54:12.623Z,83.04
2018-12-21T09:55:08.400Z,82.37
2018-12-21T09:56:08.385Z,80.95
2018-12-21T09:57:08.370Z,80.38
2018-12-21T09:58:08.362Z,80.38
2018-12-21T09:59:10.471Z,79.34
2018-12-21T10:00:08.329Z,78.67
2018-12-21T10:01:08.062Z,77.35
2018-12-21T10:02:08.293Z,76.68
2018-12-21T10:03:08.032Z,77.54
2018-12-21T10:04:08.263Z,78.58
2018-12-21T10:05:08.254Z,77.83
2018-12-21T10:06:08.233Z,77.35
2018-12-21T10:07:08.218Z,74.6
2018-12-21T10:08:08.203Z,73.46
2018-12-21T10:09:08.187Z,71.57
2018-12-21T10:10:08.169Z,74.41
2018-12-21T10:11:07.908Z,73.56
2018-12-21T10:12:08.147Z,73.27
2018-12-21T10:13:08.601Z,72.33
2018-12-21T10:14:08.110Z,70.24
2018-12-21T10:15:08.100Z,69.77
2018-12-21T10:16:08.080Z,69.96
2018-12-21T10:17:08.070Z,70.62
2018-12-21T10:18:08.050Z,71.57
2018-12-21T10:19:08.032Z,72.04
2018-12-21T10:20:08.017Z,71.85
2018-12-21T10:21:08.003Z,70.34
2018-12-21T10:22:07.990Z,68.82
2018-12-21T10:23:07.968Z,68.44
2018-12-21T10:24:07.704Z,68.15
2018-12-21T10:25:07.941Z,67.11
2018-12-21T10:26:07.928Z,66.83
2018-12-21T10:27:07.906Z,66.93
2018-12-21T10:28:07.891Z,65.78
2018-12-21T10:29:07.874Z,64.65
2018-12-21T10:30:07.862Z,63.42
2018-12-21T10:31:07.846Z,63.23
2018-12-21T10:32:07.830Z,62.47
2018-12-21T10:33:07.817Z,61.99
2018-12-21T10:34:07.796Z,60.76
2018-12-21T10:35:07.778Z,59.81
2018-12-21T10:36:07.764Z,59.44
2018-12-21T10:37:07.501Z,59.05
2018-12-21T10:38:07.739Z,59.63
2018-12-21T10:39:07.718Z,59.44
2018-12-21T10:40:07.703Z,58.48
2018-12-21T10:41:07.697Z,58.86
2018-12-21T10:42:07.674Z,58.58
2018-12-21T10:43:07.656Z,58.86
2018-12-21T10:44:07.637Z,58.86
2018-12-21T10:45:07.700Z,58.2
2018-12-21T10:46:07.607Z,59.72
2018-12-21T10:47:07.593Z,59.91
2018-12-21T10:48:07.576Z,60.86
2018-12-21T10:49:07.558Z,61.61
2018-12-21T10:50:07.294Z,63.51
2018-12-21T10:51:07.528Z,63.04
2018-12-21T10:52:07.515Z,62.56
2018-12-21T10:53:07.494Z,66.45
2018-12-21T10:54:07.481Z,67.49
2018-12-21T10:55:07.465Z,67.21
2018-12-21T10:56:07.453Z,66.93
2018-12-21T10:57:07.507Z,66.93
2018-12-21T10:58:07.423Z,65.5
2018-12-21T10:59:07.402Z,65.41
2018-12-21T11:00:07.390Z,66.54
2018-12-21T11:01:07.378Z,67.4
2018-12-21T11:02:07.109Z,68.25
2018-12-21T11:03:07.343Z,68.73
2018-12-21T11:04:07.327Z,68.82
2018-12-21T11:05:07.307Z,69.57
2018-12-21T11:06:07.297Z,70.53
2018-12-21T11:07:07.279Z,70.9
2018-12-21T11:08:07.263Z,71.85
2018-12-21T11:09:07.247Z,72.42
2018-12-21T11:10:07.235Z,72.8
2018-12-21T11:11:07.214Z,73.94
2018-12-21T11:12:07.197Z,74.13
2018-12-21T11:13:07.190Z,74.03
2018-12-21T11:14:07.168Z,74.51
2018-12-21T11:15:07.159Z,74.69
2018-12-21T11:16:07.142Z,75.45
2018-12-21T11:17:07.123Z,76.5
2018-12-21T11:18:07.109Z,76.5
2018-12-21T11:19:07.092Z,75.17
2018-12-21T11:20:07.085Z,76.03
2018-12-21T11:21:07.062Z,77.64
2018-12-21T11:22:07.043Z,77.16
2018-12-21T11:23:06.782Z,77.45
2018-12-21T11:24:07.012Z,76.78
2018-12-21T11:25:07.000Z,75.55
2018-12-21T11:26:06.982Z,74.88
2018-12-21T11:27:06.965Z,75.93
2018-12-21T11:28:06.949Z,76.59
2018-12-21T11:29:06.934Z,76.59
2018-12-21T11:30:06.928Z,75.74
2018-12-21T11:31:06.905Z,75.36
2018-12-21T11:32:06.892Z,74.69
2018-12-21T11:33:06.876Z,73.75
2018-12-21T11:34:06.860Z,74.22
2018-12-21T11:35:06.848Z,73.27
2018-12-21T11:36:06.578Z,73.65
2018-12-21T11:37:06.812Z,73.65
2018-12-21T11:38:06.798Z,74.03
2018-12-21T11:39:06.781Z,74.22
2018-12-21T11:40:06.767Z,73.94
2018-12-21T11:41:06.748Z,74.03
2018-12-21T11:42:06.737Z,74.13
2018-12-21T11:43:06.721Z,72.61
2018-12-21T11:44:06.703Z,72.99
2018-12-21T11:45:06.689Z,74.03
2018-12-21T11:46:06.677Z,73.75
2018-12-21T11:47:06.656Z,72.04
2018-12-21T11:48:06.645Z,70.81
2018-12-21T11:49:06.628Z,69.38
2018-12-21T11:50:06.612Z,68.73
2018-12-21T11:51:06.595Z,68.35
2018-12-21T11:52:06.579Z,69.01
2018-12-21T11:53:06.561Z,69.67
2018-12-21T11:54:06.547Z,70.15
2018-12-21T11:55:06.538Z,70.24
2018-12-21T11:56:06.269Z,70.62
2018-12-21T11:57:06.502Z,70.9
2018-12-21T11:58:06.487Z,70.24
2018-12-21T11:59:06.472Z,69.86
2018-12-21T12:00:06.455Z,68.54
2018-12-21T12:01:06.443Z,67.49
2018-12-21T12:02:06.430Z,66.26
2018-12-21T12:03:06.412Z,65.88
2018-12-21T12:04:06.516Z,65.5
2018-12-21T12:05:06.387Z,65.41
2018-12-21T12:06:06.361Z,65.78
2018-12-21T12:07:06.349Z,65.78
2018-12-21T12:08:06.332Z,68
2018-12-21T12:09:08.971Z,68.44
2018-12-21T12:10:06.303Z,68.85
2018-12-21T12:11:06.042Z,70.65
2018-12-21T12:12:06.271Z,73.03
2018-12-21T12:13:06.256Z,73.12
2018-12-21T12:14:06.241Z,73.5
2018-12-21T12:15:06.226Z,74.45
2018-12-21T12:16:06.209Z,73.41
2018-12-21T12:17:06.200Z,73.03
2018-12-21T12:18:06.182Z,72.64
2018-12-21T12:19:06.165Z,71.7
2018-12-21T12:20:06.151Z,70.84
2018-12-21T12:21:06.134Z,71.32
2018-12-21T12:22:05.869Z,71.22
2018-12-21T12:23:06.107Z,73.31
2018-12-21T12:24:06.087Z,74.45
2018-12-21T12:25:06.079Z,75.11
2018-12-21T12:26:06.060Z,76.15
2018-12-21T12:27:06.048Z,77.39
2018-12-21T12:28:06.032Z,76.44
2018-12-21T12:29:06.014Z,76.63
2018-12-21T12:30:06.003Z,81.27
2018-12-21T12:31:05.990Z,80.99
2018-12-21T12:32:05.971Z,80.71
2018-12-21T12:33:05.706Z,79.95
2018-12-21T12:34:05.938Z,79.38
2018-12-21T12:35:05.929Z,78.81
2018-12-21T12:36:05.911Z,78.53
2018-12-21T12:37:05.910Z,79.57
2018-12-21T12:38:05.889Z,79.95
2018-12-21T12:39:05.864Z,78.43
2018-12-21T12:40:05.602Z,77.77
2018-12-21T12:41:09.309Z,76.54
2018-12-21T12:42:06.228Z,76.63
2018-12-21T12:43:05.805Z,77.2
2018-12-21T12:44:05.790Z,80.52
2018-12-21T12:45:05.778Z,80.33
2018-12-21T12:46:05.763Z,79.66
2018-12-21T12:47:05.746Z,78.91
2018-12-21T12:48:05.727Z,76.92
2018-12-21T12:49:05.719Z,76.54
2018-12-21T12:50:05.457Z,76.63
2018-12-21T12:51:05.686Z,76.44
2018-12-21T12:52:05.672Z,76.44
2018-12-21T12:53:05.742Z,75.31
2018-12-21T12:54:05.639Z,74.64
2018-12-21T12:55:05.789Z,74.35
2018-12-21T12:56:07.680Z,73.88
2018-12-21T12:57:05.354Z,74.73
2018-12-21T12:58:05.580Z,73.69
2018-12-21T12:59:05.567Z,72.36
2018-12-21T13:00:05.306Z,69.8
2018-12-21T13:01:05.538Z,67.81
2018-12-21T13:02:05.520Z,65.53
2018-12-21T13:03:05.507Z,62.59
2018-12-21T13:04:05.495Z,60.41
2018-12-21T13:05:05.232Z,58.8
2018-12-21T13:06:05.470Z,57.47
2018-12-21T13:07:05.447Z,57.28
2018-12-21T13:08:05.433Z,56.81
2018-12-21T13:09:05.419Z,56.34
2018-12-21T13:10:05.402Z,55.67
2018-12-21T13:11:05.388Z,55.1
2018-12-21T13:12:05.371Z,54.53
2018-12-21T13:13:05.356Z,55.19
2018-12-21T13:14:05.342Z,55.38
2018-12-21T13:15:05.326Z,55.67
2018-12-21T13:16:05.064Z,56.71
2018-12-21T13:17:05.304Z,57.76
2018-12-21T13:18:05.282Z,57.95
2018-12-21T13:19:05.268Z,60.5
2018-12-21T13:20:05.258Z,61.17
2018-12-21T13:21:05.242Z,63.73
2018-12-21T13:22:05.224Z,64.68
2018-12-21T13:23:05.208Z,65.44
2018-12-21T13:24:05.190Z,64.59
2018-12-21T13:25:14.020Z,64.68
2018-12-21T13:26:05.161Z,66.01
2018-12-21T13:27:05.150Z,67.05
2018-12-21T13:28:05.133Z,64.97
2018-12-21T13:29:05.125Z,64.11
2018-12-21T13:30:05.113Z,65.91
2018-12-21T13:31:05.088Z,66.96